Data for 10/23/2013

Time Sea-Level Adjusted Pressure Absolute Pressure Temperature Relative Humidity Dew Point   
(mb) (inHg) (mb) (inHg) (C) (F) (%) (C) (F)
00:05 1023 30.21 852 25.16 6.1 42.9 48 -4.1 24.6
00:10 1023 30.21 852 25.16 6.2 43.2 49 -3.8 25.1
00:15 1023 30.21 852 25.16 6.2 43.2 48 -4 24.8
00:20 1023 30.21 852 25.16 6 42.9 49 -3.8 25.1
00:25 1023 30.21 852 25.16 6 42.8 49 -3.9 25
00:30 1023 30.21 852 25.16 5.9 42.5 50 -3.8 25.1
00:35 1023 30.21 852 25.16 5.4 41.8 52 -3.6 25.5
00:40 1023 30.21 852 25.16 5.2 41.4 53 -3.6 25.5
00:45 1023 30.21 852 25.16 5.2 41.4 52 -3.7 25.3
00:50 1023 30.21 852 25.16 5.3 41.6 52 -3.7 25.4
00:55 1023 30.21 852 25.16 5.2 41.4 53 -3.5 25.7
01:00 1023 30.21 852 25.16 4.9 40.9 54 -3.5 25.7
01:05 1023 30.21 852 25.16 5.1 41.2 53 -3.8 25.1
01:10 1023 30.21 852 25.16 5.5 42 51 -3.8 25.2
01:15 1023 30.21 852 25.16 5.7 42.2 50 -4 24.8
01:20 1023 30.21 852 25.16 6 42.8 49 -3.9 25
01:25 1023 30.21 852 25.16 6.2 43.1 49 -3.8 25.2
01:30 1023 30.21 852 25.16 6.2 43.2 48 -4 24.8
01:35 1023 30.21 852 25.16 6.2 43.2 49 -3.7 25.4
01:40 1023 30.21 852 25.16 5.7 42.3 52 -3.4 25.9
01:45 1023 30.21 852 25.16 5.1 41.2 54 -3.5 25.7
01:50 1023 30.21 852 25.16 4.8 40.6 54 -3.7 25.4
01:55 1023 30.21 852 25.16 4.7 40.5 56 -3.4 25.9
02:00 1023 30.21 852 25.16 4.4 39.8 56 -3.7 25.3
02:05 1023 30.21 852 25.16 4.9 40.9 54 -3.6 25.6
02:10 1023 30.21 852 25.16 5.2 41.3 54 -3.4 25.9
02:15 1023 30.21 852 25.16 5 41 55 -3.2 26.2
02:20 1023 30.21 852 25.16 4.9 40.7 55 -3.4 25.9
02:25 1023 30.21 852 25.16 4.7 40.5 56 -3.3 26.1
02:30 1023 30.21 852 25.16 4.5 40 56 -3.6 25.5
02:35 1023 30.21 852 25.16 5 41 54 -3.5 25.7
02:40 1023 30.21 852 25.16 5 40.9 55 -3.3 26.1
02:45 1023 30.21 852 25.16 4.8 40.7 55 -3.4 25.8
02:50 1023 30.21 852 25.16 4.7 40.5 56 -3.4 26
02:55 1023 30.21 852 25.16 4.4 40 57 -3.3 26
03:00 1023 30.21 852 25.16 4.4 39.9 57 -3.4 25.9
03:05 1023 30.21 852 25.16 4.4 40 57 -3.3 26.1
03:10 1023 30.21 852 25.16 4.3 39.7 58 -3.3 26.1
03:15 1023 30.21 852 25.16 4.2 39.6 58 -3.3 26
03:20 1023 30.21 852 25.16 4.4 39.8 57 -3.4 25.8
03:25 1023 30.21 852 25.16 4.6 40.3 56 -3.5 25.7
03:30 1023 30.21 852 25.16 4.9 40.8 54 -3.6 25.5
03:35 1023 30.21 852 25.16 5.3 41.6 52 -3.6 25.5
03:40 1023 30.21 852 25.16 5.2 41.4 54 -3.4 25.8
03:45 1023 30.21 852 25.16 4.9 40.8 55 -3.4 25.8
03:50 1023 30.21 852 25.16 4.6 40.2 56 -3.4 25.8
03:55 1023 30.21 852 25.16 4.1 39.3 59 -3.2 26.3
04:00 1023 30.21 852 25.16 3.5 38.2 61 -3.3 26.1
04:05 1023 30.21 852 25.16 3.2 37.7 62 -3.4 25.8
04:10 1023 30.21 852 25.16 3.1 37.6 62 -3.4 25.8
04:15 1023 30.21 852 25.16 3.2 37.7 61 -3.6 25.5
04:20 1023 30.21 852 25.16 3.6 38.4 60 -3.5 25.7
04:25 1023 30.21 852 25.16 3.9 39 58 -3.6 25.5
04:30 1023 30.21 852 25.16 4 39.2 58 -3.6 25.5
04:35 1023 30.21 852 25.16 4.1 39.5 56 -3.9 25
04:40 1023 30.21 852 25.16 4.4 39.9 55 -3.9 25.1
04:45 1023 30.21 852 25.16 4.5 40 56 -3.6 25.5
04:50 1023 30.21 852 25.16 4.4 39.9 56 -3.6 25.5
04:55 1023 30.21 852 25.16 4.3 39.7 56 -3.7 25.3
05:00 1023 30.21 852 25.16 4.1 39.4 57 -3.6 25.6
05:05 1023 30.21 852 25.16 3.7 38.7 59 -3.6 25.6
05:10 1023 30.21 852 25.16 3.6 38.5 60 -3.6 25.6
05:15 1023 30.21 852 25.16 3.4 38.1 60 -3.7 25.4
05:20 1023 30.21 852 25.16 3.3 38 60 -3.7 25.4
05:25 1023 30.21 852 25.16 3.2 37.7 60 -3.8 25.2
05:30 1023 30.21 852 25.16 3.3 37.9 59 -4 24.8
05:35 1023 30.21 852 25.16 3.4 38.1 59 -3.9 25
05:40 1023 30.21 852 25.16 3.5 38.3 58 -4.1 24.6
05:45 1023 30.21 852 25.16 4 39.1 56 -3.9 24.9
05:50 1023 30.21 852 25.16 4 39.2 56 -3.9 24.9
05:55 1023 30.21 852 25.16 3.7 38.7 58 -3.8 25.2
06:00 1023 30.21 853 25.19 3.5 38.3 58 -3.9 25
06:05 1023 30.21 853 25.19 3.3 37.9 59 -4 24.8
06:10 1023 30.21 853 25.19 3.2 37.7 60 -3.9 25
06:15 1023 30.21 853 25.19 3.1 37.6 58 -4.3 24.3
06:20 1023 30.21 853 25.19 3.3 37.9 60 -3.9 25.1
06:25 1024 30.24 853 25.19 3.2 37.7 59 -4.1 24.7
06:30 1023 30.21 853 25.19 3.2 37.7 59 -4 24.8
06:35 1024 30.24 853 25.19 3.2 37.7 59 -4.1 24.7
06:40 1024 30.24 853 25.19 3.3 38 58 -4.1 24.7
06:45 1024 30.24 853 25.19 3.5 38.3 58 -3.9 24.9
06:50 1024 30.24 853 25.19 3.4 38.2 58 -4.1 24.6
06:55 1024 30.24 853 25.19 3.4 38.1 59 -3.9 24.9
07:00 1024 30.24 853 25.19 2.8 37.1 61 -4 24.9
07:05 1024 30.24 853 25.19 2.6 36.7 62 -4 24.9
07:10 1024 30.24 853 25.19 2.4 36.4 64 -3.8 25.2
07:15 1024 30.24 853 25.19 1.9 35.5 65 -4 24.7
07:20 1024 30.24 853 25.19 2.1 35.7 63 -4.2 24.5
07:25 1024 30.24 853 25.19 2.5 36.5 61 -4.2 24.5
07:30 1024 30.24 853 25.19 2.8 37 61 -4 24.8
07:35 1024 30.24 853 25.19 2.7 36.8 61 -4.1 24.7
07:40 1024 30.24 853 25.19 3 37.4 59 -4.2 24.5
07:45 1024 30.24 853 25.19 3.5 38.3 57 -4.3 24.3
07:50 1024 30.24 853 25.19 4 39.2 55 -4.2 24.4
07:55 1024 30.24 853 25.19 4.8 40.6 52 -4.2 24.5
08:00 1024 30.24 853 25.19 5.1 41.2 52 -4 24.8
08:05 1024 30.24 853 25.19 4.8 40.7 54 -3.8 25.2
08:10 1024 30.24 853 25.19 4.8 40.6 53 -4 24.8
08:15 1024 30.24 853 25.19 5 41 53 -3.7 25.3
08:20 1024 30.24 853 25.19 5.4 41.7 51 -4.1 24.7
08:25 1024 30.24 853 25.19 6 42.8 48 -4.2 24.5
08:30 1024 30.24 853 25.19 6.6 43.8 47 -3.8 25.1
08:35 1024 30.24 853 25.19 6.5 43.7 47 -3.9 24.9
08:40 1024 30.24 853 25.19 6.5 43.7 47 -4 24.8
08:45 1024 30.24 853 25.19 7.3 45.2 45 -3.9 25
08:50 1024 30.24 853 25.19 8 46.3 43 -3.8 25.2
08:55 1024 30.24 853 25.19 8.4 47.2 42 -3.6 25.5
09:00 1024 30.24 853 25.19 9 48.2 40 -3.7 25.3
09:05 1024 30.24 853 25.19 9.5 49.1 39 -3.6 25.5
09:10 1024 30.24 853 25.19 9.3 48.7 40 -3.5 25.7
09:15 1024 30.24 853 25.19 9.4 48.8 40 -3.6 25.5
09:20 1024 30.24 853 25.19 9.5 49.1 41 -3.1 26.4
09:25 1024 30.24 853 25.19 9.1 48.4 42 -3.2 26.2
09:30 1024 30.24 853 25.19 9.5 49.1 40 -3.6 25.6
09:35 1024 30.24 853 25.19 9.6 49.2 41 -3.1 26.4
09:40 1024 30.24 853 25.19 9.1 48.5 41 -3.3 26
09:45 1024 30.24 853 25.19 9.2 48.5 40 -3.7 25.4
09:50 1024 30.24 853 25.19 9.7 49.5 39 -3.7 25.4
09:55 1024 30.24 853 25.19 10.2 50.4 39 -3.1 26.4
10:00 1024 30.24 853 25.19 10.1 50.1 39 -3.4 26
10:05 1024 30.24 853 25.19 10.5 50.9 38 -3.2 26.3
10:10 1024 30.24 853 25.19 11.2 52.2 35 -3.7 25.3
10:15 1024 30.24 853 25.19 11.7 53.1 35 -3.4 26
10:20 1024 30.24 853 25.19 11.7 53 33 -3.9 25.1
10:25 1024 30.24 853 25.19 11.4 52.5 35 -3.6 25.6
10:30 1024 30.24 853 25.19 11.5 52.6 35 -3.5 25.7
10:35 1024 30.24 853 25.19 11.7 53.1 34 -3.6 25.4
10:40 1024 30.24 853 25.19 11.6 52.8 35 -3.4 26
10:45 1024 30.24 853 25.19 11.7 53 34 -3.5 25.7
10:50 1024 30.24 853 25.19 12 53.7 34 -3.3 26
10:55 1024 30.24 853 25.19 12.2 54 33 -3.5 25.8
11:00 1024 30.24 853 25.19 12.5 54.5 32 -3.6 25.5
11:05 1024 30.24 853 25.19 13.1 55.5 31 -3.4 25.9
11:10 1024 30.24 853 25.19 13 55.5 32 -3.2 26.3
11:15 1024 30.24 853 25.19 12.8 55 32 -3.4 25.8
11:20 1024 30.24 853 25.19 12.9 55.3 32 -3.2 26.3
11:25 1024 30.24 853 25.19 12.8 55.1 33 -3.2 26.3
11:30 1024 30.24 853 25.19 13.1 55.5 31 -3.6 25.5
11:35 1024 30.24 853 25.19 13.3 55.9 31 -3.2 26.2
11:40 1024 30.24 853 25.19 13.9 57 30 -3.3 26.1
11:45 1024 30.24 853 25.19 14.1 57.4 30 -3.1 26.5
11:50 1024 30.24 853 25.19 13.6 56.6 32 -2.7 27.1
11:55 1024 30.24 853 25.19 14 57.2 30 -3 26.6
12:00 1024 30.24 853 25.19 14.3 57.8 30 -2.7 27.1
12:05 1024 30.24 853 25.19 14.5 58.2 31 -2.4 27.7
12:10 1024 30.24 853 25.19 14.5 58.1 31 -2.3 27.8
12:15 1024 30.24 853 25.19 14.1 57.5 32 -2.4 27.7
12:20 1024 30.24 853 25.19 14.5 58 31 -2.3 27.8
12:25 1023 30.21 853 25.19 14.5 58.1 31 -2.3 27.8
12:30 1023 30.21 853 25.19 14.5 58.1 31 -2.5 27.5
12:35 1023 30.21 853 25.19 13.4 56.2 33 -2.5 27.4
12:40 1023 30.21 853 25.19 13.2 55.7 31 -3.4 25.8
12:45 1023 30.21 853 25.19 14.1 57.3 30 -3.1 26.5
12:50 1023 30.21 853 25.19 14.8 58.6 29 -2.9 26.8
12:55 1023 30.21 852 25.16 15.1 59.1 28 -3.1 26.4
13:00 1023 30.21 853 25.19 15.3 59.5 28 -2.9 26.7
13:05 1023 30.21 853 25.19 15.1 59.2 29 -2.7 27.1
13:10 1023 30.21 852 25.16 15.1 59.3 29 -2.9 26.8
13:15 1023 30.21 852 25.16 14.7 58.5 29 -2.9 26.8
13:20 1023 30.21 852 25.16 14.6 58.2 29 -3.1 26.4
13:25 1023 30.21 852 25.16 15.1 59.3 28 -3 26.6
13:30 1023 30.21 852 25.16 15.7 60.2 28 -2.7 27.1
13:35 1023 30.21 852 25.16 15.6 60.1 27 -3 26.6
13:40 1023 30.21 852 25.16 15.8 60.4 27 -2.9 26.8
13:45 1023 30.21 852 25.16 15.9 60.5 28 -2.3 27.8
13:50 1023 30.21 852 25.16 15.4 59.7 29 -2.5 27.5
13:55 1023 30.21 852 25.16 15.4 59.8 29 -2.6 27.3
14:00 1023 30.21 852 25.16 15.2 59.3 29 -2.9 26.8
14:05 1023 30.21 852 25.16 15.5 59.8 29 -2.6 27.3
14:10 1023 30.21 852 25.16 14.8 58.6 29 -2.9 26.7
14:15 1023 30.21 852 25.16 15.7 60.2 26 -3.5 25.7
14:20 1023 30.21 852 25.16 16.2 61.2 26 -3.2 26.3
14:25 1023 30.21 852 25.16 16.1 61 28 -2.5 27.4
14:30 1023 30.21 852 25.16 15.6 60.1 27 -3.1 26.3
14:35 1023 30.21 852 25.16 16 60.9 27 -3.1 26.4
14:40 1023 30.21 852 25.16 16.2 61.1 26 -3.2 26.3
14:45 1023 30.21 852 25.16 15.7 60.3 26 -3.5 25.7
14:50 1023 30.21 852 25.16 15.9 60.5 26 -3.3 26.1
14:55 1023 30.21 852 25.16 16.1 60.9 26 -3.5 25.8
15:00 1023 30.21 852 25.16 16.2 61.1 26 -3.3 26.1
15:05 1023 30.21 852 25.16 16.2 61.2 25 -3.6 25.5
15:10 1023 30.21 852 25.16 16.7 62 24 -3.6 25.5
15:15 1023 30.21 852 25.16 16.6 61.8 25 -3.5 25.8
15:20 1023 30.21 852 25.16 16.3 61.3 25 -3.9 24.9
15:25 1023 30.21 852 25.16 16.4 61.6 24 -4.3 24.3
15:30 1023 30.21 852 25.16 16.4 61.5 24 -4.1 24.6
15:35 1023 30.21 852 25.16 16.7 62.1 23 -4.2 24.4
15:40 1023 30.21 852 25.16 16.5 61.8 24 -3.8 25.1
15:45 1023 30.21 852 25.16 16.7 62.1 23 -4.5 23.9
15:50 1023 30.21 852 25.16 17.1 62.7 23 -4.2 24.4
15:55 1023 30.21 852 25.16 16.7 62 24 -4.2 24.5
16:00 1023 30.21 852 25.16 16.5 61.7 25 -3.7 25.3
16:05 1023 30.21 852 25.16 16.4 61.5 25 -3.6 25.5
16:10 1023 30.21 852 25.16 16.3 61.3 25 -3.9 25
16:15 1023 30.21 852 25.16 16.4 61.5 25 -3.5 25.8
16:20 1022 30.18 852 25.16 16.1 60.9 25 -4.1 24.6
16:25 1022 30.18 852 25.16 16.2 61.2 25 -3.9 24.9
16:30 1022 30.18 852 25.16 16.3 61.4 25 -3.7 25.4
16:35 1022 30.18 852 25.16 16.3 61.3 24 -4.1 24.7
16:40 1022 30.18 852 25.16 16.2 61.1 25 -3.7 25.3
16:45 1022 30.18 852 25.16 15.9 60.7 26 -3.5 25.6
16:50 1022 30.18 852 25.16 15.7 60.2 26 -3.5 25.6
16:55 1022 30.18 852 25.16 15.2 59.4 27 -3.8 25.2
17:00 1022 30.18 852 25.16 14.6 58.2 28 -3.7 25.4
17:05 1022 30.18 852 25.16 14.5 58.1 28 -3.7 25.3
17:10 1023 30.21 852 25.16 14.6 58.3 29 -3.4 25.9
17:15 1023 30.21 852 25.16 14.3 57.7 30 -3.1 26.4
17:20 1023 30.21 852 25.16 14.1 57.3 30 -3 26.7
17:25 1023 30.21 852 25.16 13.7 56.7 31 -2.9 26.8
17:30 1023 30.21 852 25.16 13.3 56 32 -2.8 27
17:35 1023 30.21 852 25.16 12.3 54.1 35 -2.7 27.2
17:40 1023 30.21 852 25.16 11.8 53.2 37 -2.4 27.7
17:45 1023 30.21 852 25.16 11 51.9 39 -2.4 27.6
17:50 1023 30.21 852 25.16 10.5 50.9 41 -2.3 27.8
17:55 1023 30.21 852 25.16 10 50.1 41 -2.6 27.3
18:00 1023 30.21 852 25.16 9.7 49.5 43 -2.2 28
18:05 1023 30.21 852 25.16 9.3 48.7 43 -2.6 27.4
18:10 1023 30.21 852 25.16 8.8 47.8 45 -2.6 27.4
18:15 1023 30.21 852 25.16 8.6 47.5 44 -2.9 26.7
18:20 1023 30.21 852 25.16 8.4 47.1 46 -2.4 27.6
18:25 1023 30.21 852 25.16 7.8 46.1 49 -2.2 28.1
18:30 1023 30.21 852 25.16 7.1 44.9 49 -2.9 26.7
18:35 1023 30.21 852 25.16 7.3 45.2 45 -3.7 25.3
18:40 1023 30.21 852 25.16 7.9 46.2 44 -3.5 25.6
18:45 1023 30.21 852 25.16 8.1 46.7 42 -3.9 25
18:50 1023 30.21 852 25.16 8.1 46.6 43 -3.7 25.4
18:55 1023 30.21 852 25.16 7.9 46.3 44 -3.7 25.4
19:00 1023 30.21 852 25.16 7.6 45.7 45 -3.5 25.8
19:05 1023 30.21 852 25.16 7.4 45.3 47 -3.2 26.2
19:10 1023 30.21 852 25.16 7.5 45.5 47 -3.1 26.4
19:15 1023 30.21 852 25.16 7.6 45.8 47 -3 26.6
19:20 1023 30.21 852 25.16 7.7 45.8 48 -2.7 27.2
19:25 1023 30.21 852 25.16 7.6 45.8 47 -3 26.6
19:30 1023 30.21 852 25.16 7.5 45.6 49 -2.5 27.6
19:35 1023 30.21 852 25.16 7.4 45.3 49 -2.6 27.3
19:40 1023 30.21 852 25.16 7.3 45.2 50 -2.3 27.8
19:45 1023 30.21 852 25.16 7.2 44.9 48 -3 26.7
19:50 1023 30.21 852 25.16 7 44.6 50 -2.8 26.9
19:55 1023 30.21 852 25.16 6.9 44.5 49 -3 26.6
20:00 1023 30.21 852 25.16 7 44.6 50 -2.6 27.2
20:05 1023 30.21 852 25.16 7.1 44.7 50 -2.5 27.5
20:10 1023 30.21 852 25.16 7.2 44.9 52 -2 28.4
20:15 1023 30.21 852 25.16 7.1 44.7 53 -1.8 28.8
20:20 1023 30.21 852 25.16 6.9 44.5 53 -2 28.3
20:25 1023 30.21 852 25.16 6.9 44.4 53 -2.1 28.2
20:30 1023 30.21 852 25.16 6.9 44.4 53 -2.1 28.2
20:35 1023 30.21 852 25.16 6.6 44 50 -3 26.6
20:40 1023 30.21 852 25.16 6.6 43.8 49 -3.4 25.9
20:45 1023 30.21 852 25.16 6.8 44.2 48 -3.6 25.6
20:50 1023 30.21 852 25.16 6.7 44.1 46 -4 24.9
20:55 1023 30.21 852 25.16 6.8 44.3 47 -3.7 25.3
21:00 1023 30.21 852 25.16 6.9 44.4 48 -3.2 26.2
21:05 1023 30.21 852 25.16 6.8 44.3 50 -2.8 27
21:10 1023 30.21 852 25.16 6.7 44 53 -2.2 28
21:15 1023 30.21 852 25.16 6.5 43.7 54 -2.1 28.2
21:20 1023 30.21 852 25.16 6.4 43.6 54 -2.3 27.9
21:25 1023 30.21 852 25.16 6.1 43 54 -2.5 27.4
21:30 1023 30.21 852 25.16 5.8 42.5 55 -2.6 27.4
21:35 1023 30.21 852 25.16 5.7 42.2 56 -2.5 27.5
21:40 1023 30.21 852 25.16 5.9 42.6 56 -2.2 28.1
21:45 1023 30.21 852 25.16 6.7 44.1 54 -1.8 28.7
21:50 1023 30.21 852 25.16 7.2 44.9 56 -1 30.2
21:55 1023 30.21 852 25.16 7.2 45 58 -0.6 30.9
22:00 1023 30.21 852 25.16 7.3 45.1 59 -0.2 31.7
22:05 1023 30.21 852 25.16 7.4 45.3 60 0.2 32.3
22:10 1023 30.21 852 25.16 7.4 45.3 61 0.5 32.9
22:15 1023 30.21 853 25.19 7.4 45.2 62 0.6 33
22:20 1023 30.21 853 25.19 7.3 45.1 63 0.7 33.2
22:25 1023 30.21 853 25.19 7.2 45 63 0.7 33.3
22:30 1023 30.21 853 25.19 7.1 44.8 64 0.7 33.3
22:35 1023 30.21 853 25.19 7 44.6 65 0.8 33.4
22:40 1023 30.21 853 25.19 6.9 44.3 66 0.9 33.6
22:45 1023 30.21 853 25.19 6.7 44 67 0.9 33.7
22:50 1024 30.24 853 25.19 6.5 43.7 68 1 33.8
22:55 1024 30.24 853 25.19 6.4 43.5 68 1 33.8
23:00 1024 30.24 853 25.19 6.3 43.4 69 1.1 33.9
23:05 1024 30.24 853 25.19 6.3 43.3 70 1.2 34.1
23:10 1024 30.24 853 25.19 6.1 43.1 71 1.2 34.2
23:15 1024 30.24 853 25.19 6.1 42.9 71 1.2 34.2
23:20 1024 30.24 853 25.19 6 42.8 72 1.2 34.2
23:25 1024 30.24 853 25.19 5.9 42.7 72 1.3 34.3
23:30 1024 30.24 853 25.19 5.8 42.5 73 1.3 34.4
23:35 1024 30.24 853 25.19 5.7 42.3 74 1.3 34.4
23:40 1024 30.24 853 25.19 5.6 42.1 74 1.4 34.5
23:45 1024 30.24 853 25.19 5.4 41.8 75 1.3 34.4
23:50 1024 30.24 853 25.19 5.3 41.6 76 1.3 34.4
23:55 1024 30.24 853 25.19 5.2 41.4 76 1.4 34.5
24:00 1024 30.24 853 25.19 5.1 41.3 77 1.4 34.5